sensor_id;sensor_type;location;lat;lon;timestamp;P1;durP1;ratioP1;P2;durP2;ratioP2
8636;SDS011;4356;49.068;8.658;2022-12-18T00:01:56;17.97;;;14.13;;
8636;SDS011;4356;49.068;8.658;2022-12-18T00:04:24;18.00;;;13.53;;
8636;SDS011;4356;49.068;8.658;2022-12-18T00:06:51;21.23;;;14.43;;
8636;SDS011;4356;49.068;8.658;2022-12-18T00:09:17;19.07;;;13.63;;
8636;SDS011;4356;49.068;8.658;2022-12-18T00:11:43;19.20;;;13.67;;
8636;SDS011;4356;49.068;8.658;2022-12-18T00:14:10;19.87;;;13.73;;
8636;SDS011;4356;49.068;8.658;2022-12-18T00:16:37;21.90;;;13.73;;
8636;SDS011;4356;49.068;8.658;2022-12-18T00:19:03;17.80;;;12.57;;
8636;SDS011;4356;49.068;8.658;2022-12-18T00:21:30;21.47;;;14.10;;
8636;SDS011;4356;49.068;8.658;2022-12-18T00:23:58;20.97;;;13.50;;
8636;SDS011;4356;49.068;8.658;2022-12-18T00:26:26;19.60;;;13.60;;
8636;SDS011;4356;49.068;8.658;2022-12-18T00:28:54;18.50;;;13.57;;
8636;SDS011;4356;49.068;8.658;2022-12-18T00:31:23;21.63;;;13.50;;
8636;SDS011;4356;49.068;8.658;2022-12-18T00:33:50;19.03;;;14.00;;
8636;SDS011;4356;49.068;8.658;2022-12-18T00:36:17;21.23;;;14.10;;
8636;SDS011;4356;49.068;8.658;2022-12-18T00:38:46;18.00;;;13.57;;
8636;SDS011;4356;49.068;8.658;2022-12-18T00:41:13;20.10;;;12.93;;
8636;SDS011;4356;49.068;8.658;2022-12-18T00:44:00;19.57;;;13.37;;
8636;SDS011;4356;49.068;8.658;2022-12-18T00:46:26;16.73;;;12.73;;
8636;SDS011;4356;49.068;8.658;2022-12-18T00:48:52;20.30;;;13.17;;
8636;SDS011;4356;49.068;8.658;2022-12-18T00:51:18;17.20;;;12.47;;
8636;SDS011;4356;49.068;8.658;2022-12-18T00:53:43;26.37;;;14.77;;
8636;SDS011;4356;49.068;8.658;2022-12-18T00:56:09;23.67;;;15.73;;
8636;SDS011;4356;49.068;8.658;2022-12-18T00:58:35;19.50;;;13.97;;
8636;SDS011;4356;49.068;8.658;2022-12-18T01:01:00;23.10;;;14.27;;
8636;SDS011;4356;49.068;8.658;2022-12-18T01:03:26;19.73;;;14.33;;
8636;SDS011;4356;49.068;8.658;2022-12-18T01:05:51;20.80;;;14.30;;
8636;SDS011;4356;49.068;8.658;2022-12-18T01:08:17;22.00;;;13.67;;
8636;SDS011;4356;49.068;8.658;2022-12-18T01:10:43;20.87;;;13.17;;
8636;SDS011;4356;49.068;8.658;2022-12-18T01:13:08;16.13;;;12.77;;
8636;SDS011;4356;49.068;8.658;2022-12-18T01:15:34;18.57;;;12.83;;
8636;SDS011;4356;49.068;8.658;2022-12-18T01:18:00;15.90;;;13.00;;
8636;SDS011;4356;49.068;8.658;2022-12-18T01:20:25;18.57;;;13.50;;
8636;SDS011;4356;49.068;8.658;2022-12-18T01:22:51;18.33;;;14.00;;
8636;SDS011;4356;49.068;8.658;2022-12-18T01:25:17;22.20;;;13.37;;
8636;SDS011;4356;49.068;8.658;2022-12-18T01:27:42;21.83;;;12.87;;
8636;SDS011;4356;49.068;8.658;2022-12-18T01:30:08;19.20;;;12.37;;
8636;SDS011;4356;49.068;8.658;2022-12-18T01:32:34;21.83;;;13.47;;
8636;SDS011;4356;49.068;8.658;2022-12-18T01:35:00;17.40;;;12.30;;
8636;SDS011;4356;49.068;8.658;2022-12-18T01:37:26;19.20;;;12.60;;
8636;SDS011;4356;49.068;8.658;2022-12-18T01:39:52;16.47;;;12.13;;
8636;SDS011;4356;49.068;8.658;2022-12-18T01:42:19;20.10;;;12.93;;
8636;SDS011;4356;49.068;8.658;2022-12-18T01:44:58;14.73;;;12.07;;
8636;SDS011;4356;49.068;8.658;2022-12-18T01:47:36;17.23;;;11.63;;
8636;SDS011;4356;49.068;8.658;2022-12-18T01:50:36;19.00;;;13.83;;
8636;SDS011;4356;49.068;8.658;2022-12-18T01:53:10;17.47;;;11.93;;
8636;SDS011;4356;49.068;8.658;2022-12-18T01:55:46;18.47;;;12.70;;
8636;SDS011;4356;49.068;8.658;2022-12-18T01:58:16;17.60;;;12.60;;
8636;SDS011;4356;49.068;8.658;2022-12-18T02:00:42;17.53;;;11.67;;
8636;SDS011;4356;49.068;8.658;2022-12-18T02:03:08;16.97;;;11.97;;
8636;SDS011;4356;49.068;8.658;2022-12-18T02:08:50;16.67;;;11.87;;
8636;SDS011;4356;49.068;8.658;2022-12-18T02:11:31;15.33;;;11.53;;
8636;SDS011;4356;49.068;8.658;2022-12-18T02:25:19;19.13;;;12.23;;
8636;SDS011;4356;49.068;8.658;2022-12-18T02:28:09;17.87;;;11.67;;
8636;SDS011;4356;49.068;8.658;2022-12-18T02:30:37;15.90;;;11.87;;
8636;SDS011;4356;49.068;8.658;2022-12-18T02:33:06;20.17;;;12.03;;
8636;SDS011;4356;49.068;8.658;2022-12-18T02:35:33;14.20;;;11.03;;
8636;SDS011;4356;49.068;8.658;2022-12-18T02:38:01;19.23;;;11.80;;
8636;SDS011;4356;49.068;8.658;2022-12-18T02:40:29;17.40;;;12.53;;
8636;SDS011;4356;49.068;8.658;2022-12-18T02:42:55;14.67;;;11.37;;
8636;SDS011;4356;49.068;8.658;2022-12-18T02:45:28;16.10;;;11.17;;
8636;SDS011;4356;49.068;8.658;2022-12-18T02:47:53;14.23;;;10.73;;
8636;SDS011;4356;49.068;8.658;2022-12-18T02:50:29;18.33;;;12.40;;
8636;SDS011;4356;49.068;8.658;2022-12-18T02:53:14;15.53;;;10.43;;
8636;SDS011;4356;49.068;8.658;2022-12-18T03:00:57;16.20;;;11.13;;
8636;SDS011;4356;49.068;8.658;2022-12-18T03:03:33;14.50;;;10.83;;
8636;SDS011;4356;49.068;8.658;2022-12-18T03:06:11;14.27;;;10.57;;
8636;SDS011;4356;49.068;8.658;2022-12-18T03:09:16;18.13;;;12.07;;
8636;SDS011;4356;49.068;8.658;2022-12-18T03:11:46;16.50;;;11.40;;
8636;SDS011;4356;49.068;8.658;2022-12-18T03:14:36;15.47;;;11.97;;
8636;SDS011;4356;49.068;8.658;2022-12-18T03:17:03;16.03;;;12.00;;
8636;SDS011;4356;49.068;8.658;2022-12-18T03:19:32;13.50;;;10.73;;
8636;SDS011;4356;49.068;8.658;2022-12-18T03:22:00;16.63;;;11.23;;
8636;SDS011;4356;49.068;8.658;2022-12-18T03:24:28;15.57;;;10.97;;
8636;SDS011;4356;49.068;8.658;2022-12-18T03:27:06;17.77;;;11.23;;
8636;SDS011;4356;49.068;8.658;2022-12-18T03:32:06;15.80;;;10.97;;
8636;SDS011;4356;49.068;8.658;2022-12-18T03:34:35;14.70;;;10.70;;
8636;SDS011;4356;49.068;8.658;2022-12-18T03:37:04;17.03;;;11.77;;
8636;SDS011;4356;49.068;8.658;2022-12-18T03:39:30;17.07;;;12.07;;
8636;SDS011;4356;49.068;8.658;2022-12-18T03:47:06;15.77;;;10.97;;
8636;SDS011;4356;49.068;8.658;2022-12-18T03:55:17;13.10;;;10.00;;
8636;SDS011;4356;49.068;8.658;2022-12-18T03:57:45;13.53;;;10.07;;
8636;SDS011;4356;49.068;8.658;2022-12-18T04:00:14;12.83;;;9.77;;
8636;SDS011;4356;49.068;8.658;2022-12-18T04:02:46;13.57;;;10.73;;
8636;SDS011;4356;49.068;8.658;2022-12-18T04:05:16;17.67;;;11.10;;
8636;SDS011;4356;49.068;8.658;2022-12-18T04:07:47;16.37;;;10.73;;
8636;SDS011;4356;49.068;8.658;2022-12-18T04:10:16;13.43;;;10.70;;
8636;SDS011;4356;49.068;8.658;2022-12-18T04:12:42;14.60;;;10.57;;
8636;SDS011;4356;49.068;8.658;2022-12-18T04:15:08;15.97;;;10.67;;
8636;SDS011;4356;49.068;8.658;2022-12-18T04:17:35;13.93;;;10.53;;
8636;SDS011;4356;49.068;8.658;2022-12-18T04:20:01;12.93;;;10.50;;
8636;SDS011;4356;49.068;8.658;2022-12-18T04:22:27;17.33;;;11.43;;
8636;SDS011;4356;49.068;8.658;2022-12-18T04:24:53;16.20;;;10.73;;
8636;SDS011;4356;49.068;8.658;2022-12-18T04:27:19;16.57;;;11.50;;
8636;SDS011;4356;49.068;8.658;2022-12-18T04:29:44;12.87;;;9.83;;
8636;SDS011;4356;49.068;8.658;2022-12-18T04:32:10;11.13;;;9.20;;
8636;SDS011;4356;49.068;8.658;2022-12-18T04:34:36;15.13;;;9.47;;
8636;SDS011;4356;49.068;8.658;2022-12-18T04:37:02;12.60;;;9.37;;
8636;SDS011;4356;49.068;8.658;2022-12-18T04:39:27;12.33;;;9.53;;
8636;SDS011;4356;49.068;8.658;2022-12-18T04:41:53;15.20;;;10.17;;
8636;SDS011;4356;49.068;8.658;2022-12-18T04:44:19;12.70;;;9.40;;
8636;SDS011;4356;49.068;8.658;2022-12-18T04:46:44;16.33;;;10.03;;
8636;SDS011;4356;49.068;8.658;2022-12-18T04:49:10;14.03;;;10.53;;
8636;SDS011;4356;49.068;8.658;2022-12-18T04:51:36;13.60;;;9.73;;
8636;SDS011;4356;49.068;8.658;2022-12-18T04:54:02;14.70;;;9.53;;
8636;SDS011;4356;49.068;8.658;2022-12-18T04:56:30;12.37;;;9.87;;
8636;SDS011;4356;49.068;8.658;2022-12-18T04:58:56;12.67;;;9.63;;
8636;SDS011;4356;49.068;8.658;2022-12-18T05:01:22;12.33;;;9.60;;
8636;SDS011;4356;49.068;8.658;2022-12-18T05:03:48;11.60;;;9.40;;
8636;SDS011;4356;49.068;8.658;2022-12-18T05:06:14;9.80;;;8.80;;
8636;SDS011;4356;49.068;8.658;2022-12-18T05:08:40;16.23;;;10.10;;
8636;SDS011;4356;49.068;8.658;2022-12-18T05:11:07;17.47;;;11.90;;
8636;SDS011;4356;49.068;8.658;2022-12-18T05:13:34;17.60;;;11.60;;
8636;SDS011;4356;49.068;8.658;2022-12-18T05:16:01;10.83;;;9.50;;
8636;SDS011;4356;49.068;8.658;2022-12-18T05:18:27;10.57;;;9.20;;
8636;SDS011;4356;49.068;8.658;2022-12-18T05:20:54;11.17;;;8.80;;
8636;SDS011;4356;49.068;8.658;2022-12-18T05:23:20;12.33;;;9.33;;
8636;SDS011;4356;49.068;8.658;2022-12-18T05:26:00;12.47;;;9.30;;
8636;SDS011;4356;49.068;8.658;2022-12-18T05:28:28;8.70;;;7.90;;
8636;SDS011;4356;49.068;8.658;2022-12-18T05:30:56;9.60;;;8.37;;
8636;SDS011;4356;49.068;8.658;2022-12-18T05:33:23;11.40;;;8.90;;
8636;SDS011;4356;49.068;8.658;2022-12-18T05:35:51;7.80;;;7.03;;
8636;SDS011;4356;49.068;8.658;2022-12-18T05:38:18;8.87;;;7.50;;
8636;SDS011;4356;49.068;8.658;2022-12-18T05:40:45;9.33;;;7.97;;
8636;SDS011;4356;49.068;8.658;2022-12-18T05:43:11;8.77;;;7.53;;
8636;SDS011;4356;49.068;8.658;2022-12-18T05:45:37;8.23;;;7.43;;
8636;SDS011;4356;49.068;8.658;2022-12-18T05:48:04;10.30;;;7.87;;
8636;SDS011;4356;49.068;8.658;2022-12-18T05:50:30;7.63;;;6.73;;
8636;SDS011;4356;49.068;8.658;2022-12-18T05:52:55;10.73;;;8.00;;
8636;SDS011;4356;49.068;8.658;2022-12-18T05:55:21;8.67;;;7.80;;
8636;SDS011;4356;49.068;8.658;2022-12-18T05:57:47;8.87;;;7.53;;
8636;SDS011;4356;49.068;8.658;2022-12-18T06:00:12;9.20;;;6.33;;
8636;SDS011;4356;49.068;8.658;2022-12-18T06:02:38;9.17;;;7.33;;
8636;SDS011;4356;49.068;8.658;2022-12-18T06:05:04;12.27;;;8.03;;
8636;SDS011;4356;49.068;8.658;2022-12-18T06:07:30;9.37;;;7.23;;
8636;SDS011;4356;49.068;8.658;2022-12-18T06:09:56;8.77;;;7.30;;
8636;SDS011;4356;49.068;8.658;2022-12-18T06:12:21;10.77;;;8.40;;
8636;SDS011;4356;49.068;8.658;2022-12-18T06:14:47;9.70;;;7.17;;
8636;SDS011;4356;49.068;8.658;2022-12-18T06:17:13;8.87;;;7.17;;
8636;SDS011;4356;49.068;8.658;2022-12-18T06:19:38;7.67;;;6.73;;
8636;SDS011;4356;49.068;8.658;2022-12-18T06:22:04;7.70;;;6.83;;
8636;SDS011;4356;49.068;8.658;2022-12-18T06:24:30;9.97;;;7.83;;
8636;SDS011;4356;49.068;8.658;2022-12-18T06:26:55;7.70;;;6.67;;
8636;SDS011;4356;49.068;8.658;2022-12-18T06:29:21;7.60;;;6.30;;
8636;SDS011;4356;49.068;8.658;2022-12-18T06:31:47;9.27;;;7.13;;
8636;SDS011;4356;49.068;8.658;2022-12-18T06:34:12;9.17;;;7.27;;
8636;SDS011;4356;49.068;8.658;2022-12-18T06:36:38;7.30;;;6.63;;
8636;SDS011;4356;49.068;8.658;2022-12-18T06:39:04;7.70;;;6.97;;
8636;SDS011;4356;49.068;8.658;2022-12-18T06:41:29;8.53;;;7.10;;
8636;SDS011;4356;49.068;8.658;2022-12-18T06:43:55;10.03;;;7.13;;
8636;SDS011;4356;49.068;8.658;2022-12-18T06:46:20;10.70;;;7.20;;
8636;SDS011;4356;49.068;8.658;2022-12-18T06:48:47;7.83;;;6.87;;
8636;SDS011;4356;49.068;8.658;2022-12-18T06:51:18;10.37;;;7.43;;
8636;SDS011;4356;49.068;8.658;2022-12-18T06:53:45;8.93;;;7.13;;
8636;SDS011;4356;49.068;8.658;2022-12-18T06:56:11;8.90;;;7.83;;
8636;SDS011;4356;49.068;8.658;2022-12-18T06:58:37;7.47;;;6.70;;
8636;SDS011;4356;49.068;8.658;2022-12-18T07:01:05;10.13;;;7.30;;
8636;SDS011;4356;49.068;8.658;2022-12-18T07:03:32;8.87;;;7.23;;
8636;SDS011;4356;49.068;8.658;2022-12-18T07:05:59;10.03;;;7.57;;
8636;SDS011;4356;49.068;8.658;2022-12-18T07:08:25;6.40;;;5.80;;
8636;SDS011;4356;49.068;8.658;2022-12-18T07:10:51;7.43;;;6.60;;
8636;SDS011;4356;49.068;8.658;2022-12-18T07:13:18;8.60;;;7.03;;
8636;SDS011;4356;49.068;8.658;2022-12-18T07:15:43;9.60;;;7.33;;
8636;SDS011;4356;49.068;8.658;2022-12-18T07:18:09;8.13;;;6.20;;
8636;SDS011;4356;49.068;8.658;2022-12-18T07:20:35;6.93;;;5.83;;
8636;SDS011;4356;49.068;8.658;2022-12-18T07:23:02;7.17;;;6.43;;
8636;SDS011;4356;49.068;8.658;2022-12-18T07:25:28;7.47;;;5.57;;
8636;SDS011;4356;49.068;8.658;2022-12-18T07:27:54;7.00;;;5.70;;
8636;SDS011;4356;49.068;8.658;2022-12-18T07:30:20;9.70;;;6.90;;
8636;SDS011;4356;49.068;8.658;2022-12-18T07:32:45;10.47;;;7.43;;
8636;SDS011;4356;49.068;8.658;2022-12-18T07:35:11;9.77;;;8.63;;
8636;SDS011;4356;49.068;8.658;2022-12-18T07:37:37;7.83;;;6.40;;
8636;SDS011;4356;49.068;8.658;2022-12-18T07:40:03;8.90;;;6.50;;
8636;SDS011;4356;49.068;8.658;2022-12-18T07:42:29;8.77;;;7.20;;
8636;SDS011;4356;49.068;8.658;2022-12-18T07:45:00;10.30;;;6.80;;
8636;SDS011;4356;49.068;8.658;2022-12-18T07:47:27;10.37;;;6.63;;
8636;SDS011;4356;49.068;8.658;2022-12-18T07:49:53;8.67;;;7.83;;
8636;SDS011;4356;49.068;8.658;2022-12-18T07:52:19;8.60;;;7.80;;
8636;SDS011;4356;49.068;8.658;2022-12-18T07:54:44;9.03;;;7.40;;
8636;SDS011;4356;49.068;8.658;2022-12-18T07:57:10;8.40;;;7.43;;
8636;SDS011;4356;49.068;8.658;2022-12-18T07:59:36;11.53;;;7.53;;
8636;SDS011;4356;49.068;8.658;2022-12-18T08:02:02;8.23;;;7.33;;
8636;SDS011;4356;49.068;8.658;2022-12-18T08:04:28;11.77;;;7.00;;
8636;SDS011;4356;49.068;8.658;2022-12-18T08:06:53;8.17;;;7.27;;
8636;SDS011;4356;49.068;8.658;2022-12-18T08:09:19;7.87;;;7.03;;
8636;SDS011;4356;49.068;8.658;2022-12-18T08:11:45;8.70;;;7.57;;
8636;SDS011;4356;49.068;8.658;2022-12-18T08:14:10;11.97;;;7.93;;
8636;SDS011;4356;49.068;8.658;2022-12-18T08:16:36;9.97;;;7.33;;
8636;SDS011;4356;49.068;8.658;2022-12-18T08:19:02;8.40;;;7.10;;
8636;SDS011;4356;49.068;8.658;2022-12-18T08:21:29;8.90;;;7.37;;
8636;SDS011;4356;49.068;8.658;2022-12-18T08:23:57;9.40;;;7.70;;
8636;SDS011;4356;49.068;8.658;2022-12-18T08:26:25;7.53;;;6.73;;
8636;SDS011;4356;49.068;8.658;2022-12-18T08:28:56;8.23;;;7.10;;
8636;SDS011;4356;49.068;8.658;2022-12-18T08:31:24;13.00;;;8.73;;
8636;SDS011;4356;49.068;8.658;2022-12-18T08:33:51;8.90;;;5.97;;
8636;SDS011;4356;49.068;8.658;2022-12-18T08:36:18;7.37;;;6.63;;
8636;SDS011;4356;49.068;8.658;2022-12-18T08:38:47;7.17;;;6.37;;
8636;SDS011;4356;49.068;8.658;2022-12-18T08:41:13;6.90;;;6.30;;
8636;SDS011;4356;49.068;8.658;2022-12-18T08:43:40;8.47;;;7.20;;
8636;SDS011;4356;49.068;8.658;2022-12-18T08:46:25;8.50;;;6.80;;
8636;SDS011;4356;49.068;8.658;2022-12-18T08:48:52;6.67;;;6.07;;
8636;SDS011;4356;49.068;8.658;2022-12-18T08:51:20;13.50;;;7.90;;
8636;SDS011;4356;49.068;8.658;2022-12-18T08:53:46;8.57;;;6.53;;
8636;SDS011;4356;49.068;8.658;2022-12-18T08:56:12;8.87;;;6.70;;
8636;SDS011;4356;49.068;8.658;2022-12-18T08:58:39;8.23;;;6.97;;
8636;SDS011;4356;49.068;8.658;2022-12-18T09:01:06;6.90;;;6.20;;
8636;SDS011;4356;49.068;8.658;2022-12-18T09:03:34;9.17;;;7.43;;
8636;SDS011;4356;49.068;8.658;2022-12-18T09:06:00;8.33;;;6.97;;
8636;SDS011;4356;49.068;8.658;2022-12-18T09:08:26;10.50;;;7.80;;
8636;SDS011;4356;49.068;8.658;2022-12-18T09:10:52;8.53;;;7.53;;
8636;SDS011;4356;49.068;8.658;2022-12-18T09:13:19;10.77;;;7.27;;
8636;SDS011;4356;49.068;8.658;2022-12-18T09:15:47;7.30;;;6.40;;
8636;SDS011;4356;49.068;8.658;2022-12-18T09:18:15;8.87;;;7.77;;
8636;SDS011;4356;49.068;8.658;2022-12-18T09:20:43;9.50;;;6.77;;
8636;SDS011;4356;49.068;8.658;2022-12-18T09:23:10;9.50;;;7.00;;
8636;SDS011;4356;49.068;8.658;2022-12-18T09:25:36;8.97;;;7.63;;
8636;SDS011;4356;49.068;8.658;2022-12-18T09:28:03;10.57;;;8.40;;
8636;SDS011;4356;49.068;8.658;2022-12-18T09:30:30;12.23;;;7.83;;
8636;SDS011;4356;49.068;8.658;2022-12-18T09:32:58;8.60;;;7.43;;
8636;SDS011;4356;49.068;8.658;2022-12-18T09:35:24;10.63;;;7.90;;
8636;SDS011;4356;49.068;8.658;2022-12-18T09:37:50;11.00;;;7.70;;
8636;SDS011;4356;49.068;8.658;2022-12-18T09:40:16;10.67;;;7.40;;
8636;SDS011;4356;49.068;8.658;2022-12-18T09:42:53;5.93;;;5.43;;
8636;SDS011;4356;49.068;8.658;2022-12-18T09:45:22;10.87;;;8.07;;
8636;SDS011;4356;49.068;8.658;2022-12-18T09:47:49;10.23;;;7.83;;
8636;SDS011;4356;49.068;8.658;2022-12-18T09:52:44;10.20;;;7.77;;
8636;SDS011;4356;49.068;8.658;2022-12-18T09:55:21;7.73;;;6.63;;
8636;SDS011;4356;49.068;8.658;2022-12-18T09:57:49;10.73;;;7.10;;
8636;SDS011;4356;49.068;8.658;2022-12-18T10:00:21;8.43;;;6.80;;
8636;SDS011;4356;49.068;8.658;2022-12-18T10:02:48;8.33;;;7.07;;
8636;SDS011;4356;49.068;8.658;2022-12-18T10:05:28;10.20;;;7.60;;
8636;SDS011;4356;49.068;8.658;2022-12-18T10:08:10;11.70;;;7.80;;
8636;SDS011;4356;49.068;8.658;2022-12-18T10:10:51;11.03;;;8.27;;
8636;SDS011;4356;49.068;8.658;2022-12-18T10:13:28;10.97;;;8.00;;
8636;SDS011;4356;49.068;8.658;2022-12-18T10:21:15;9.30;;;6.97;;
8636;SDS011;4356;49.068;8.658;2022-12-18T10:26:21;9.07;;;7.27;;
8636;SDS011;4356;49.068;8.658;2022-12-18T10:28:47;8.23;;;7.43;;
8636;SDS011;4356;49.068;8.658;2022-12-18T10:33:42;10.93;;;8.33;;
8636;SDS011;4356;49.068;8.658;2022-12-18T10:36:08;9.73;;;8.00;;
8636;SDS011;4356;49.068;8.658;2022-12-18T10:38:34;12.13;;;8.10;;
8636;SDS011;4356;49.068;8.658;2022-12-18T10:41:01;13.40;;;8.33;;
8636;SDS011;4356;49.068;8.658;2022-12-18T10:43:36;10.33;;;8.20;;
8636;SDS011;4356;49.068;8.658;2022-12-18T10:48:36;9.83;;;8.30;;
8636;SDS011;4356;49.068;8.658;2022-12-18T10:51:28;10.97;;;7.87;;
8636;SDS011;4356;49.068;8.658;2022-12-18T10:54:03;13.17;;;9.37;;
8636;SDS011;4356;49.068;8.658;2022-12-18T10:56:43;11.77;;;8.03;;
8636;SDS011;4356;49.068;8.658;2022-12-18T10:59:10;11.63;;;7.73;;
8636;SDS011;4356;49.068;8.658;2022-12-18T11:01:51;14.27;;;9.60;;
8636;SDS011;4356;49.068;8.658;2022-12-18T11:06:59;8.67;;;7.77;;
8636;SDS011;4356;49.068;8.658;2022-12-18T11:09:29;10.33;;;8.73;;
8636;SDS011;4356;49.068;8.658;2022-12-18T11:12:00;12.90;;;9.47;;
8636;SDS011;4356;49.068;8.658;2022-12-18T11:14:29;13.73;;;10.27;;
8636;SDS011;4356;49.068;8.658;2022-12-18T11:16:59;14.50;;;9.83;;
8636;SDS011;4356;49.068;8.658;2022-12-18T11:21:54;13.97;;;9.37;;
8636;SDS011;4356;49.068;8.658;2022-12-18T11:24:23;10.97;;;8.87;;
8636;SDS011;4356;49.068;8.658;2022-12-18T11:26:57;14.83;;;9.07;;
8636;SDS011;4356;49.068;8.658;2022-12-18T11:29:35;11.63;;;9.40;;
8636;SDS011;4356;49.068;8.658;2022-12-18T11:34:47;14.50;;;9.57;;
8636;SDS011;4356;49.068;8.658;2022-12-18T11:37:16;15.07;;;10.07;;
8636;SDS011;4356;49.068;8.658;2022-12-18T11:39:49;13.43;;;9.90;;
8636;SDS011;4356;49.068;8.658;2022-12-18T11:42:22;12.30;;;10.07;;
8636;SDS011;4356;49.068;8.658;2022-12-18T11:45:02;11.33;;;9.73;;
8636;SDS011;4356;49.068;8.658;2022-12-18T11:47:44;12.37;;;10.13;;
8636;SDS011;4356;49.068;8.658;2022-12-18T11:50:23;14.77;;;12.03;;
8636;SDS011;4356;49.068;8.658;2022-12-18T11:53:02;15.47;;;11.20;;
8636;SDS011;4356;49.068;8.658;2022-12-18T11:55:39;15.33;;;11.63;;
8636;SDS011;4356;49.068;8.658;2022-12-18T11:58:28;15.83;;;11.90;;
8636;SDS011;4356;49.068;8.658;2022-12-18T12:03:56;16.77;;;11.87;;
8636;SDS011;4356;49.068;8.658;2022-12-18T12:06:55;15.60;;;11.60;;
8636;SDS011;4356;49.068;8.658;2022-12-18T12:24:15;17.90;;;13.70;;
8636;SDS011;4356;49.068;8.658;2022-12-18T12:29:34;20.97;;;14.17;;
8636;SDS011;4356;49.068;8.658;2022-12-18T12:40:38;21.70;;;14.80;;
8636;SDS011;4356;49.068;8.658;2022-12-18T12:43:23;16.93;;;14.00;;
8636;SDS011;4356;49.068;8.658;2022-12-18T12:46:03;16.80;;;13.57;;
8636;SDS011;4356;49.068;8.658;2022-12-18T12:51:22;14.50;;;11.47;;
8636;SDS011;4356;49.068;8.658;2022-12-18T12:53:54;16.97;;;13.47;;
8636;SDS011;4356;49.068;8.658;2022-12-18T12:56:22;18.70;;;13.07;;
8636;SDS011;4356;49.068;8.658;2022-12-18T13:01:36;15.67;;;13.37;;
8636;SDS011;4356;49.068;8.658;2022-12-18T13:07:12;16.07;;;13.23;;
8636;SDS011;4356;49.068;8.658;2022-12-18T13:18:16;19.13;;;14.30;;
8636;SDS011;4356;49.068;8.658;2022-12-18T13:25:49;17.37;;;13.47;;
8636;SDS011;4356;49.068;8.658;2022-12-18T13:28:18;18.40;;;14.50;;
8636;SDS011;4356;49.068;8.658;2022-12-18T13:31:08;17.90;;;13.90;;
8636;SDS011;4356;49.068;8.658;2022-12-18T13:36:02;15.53;;;13.73;;
8636;SDS011;4356;49.068;8.658;2022-12-18T13:38:38;19.40;;;14.23;;
8636;SDS011;4356;49.068;8.658;2022-12-18T13:41:21;17.70;;;14.00;;
8636;SDS011;4356;49.068;8.658;2022-12-18T13:43:52;15.10;;;12.57;;
8636;SDS011;4356;49.068;8.658;2022-12-18T13:46:26;21.07;;;13.13;;
8636;SDS011;4356;49.068;8.658;2022-12-18T13:48:55;18.03;;;13.57;;
8636;SDS011;4356;49.068;8.658;2022-12-18T13:51:24;17.07;;;13.50;;
8636;SDS011;4356;49.068;8.658;2022-12-18T13:53:52;14.57;;;11.97;;
8636;SDS011;4356;49.068;8.658;2022-12-18T13:56:26;18.43;;;14.93;;
8636;SDS011;4356;49.068;8.658;2022-12-18T14:01:53;18.50;;;13.77;;
8636;SDS011;4356;49.068;8.658;2022-12-18T14:07:03;18.20;;;13.47;;
8636;SDS011;4356;49.068;8.658;2022-12-18T14:09:35;16.13;;;13.30;;
8636;SDS011;4356;49.068;8.658;2022-12-18T14:12:04;16.27;;;13.73;;
8636;SDS011;4356;49.068;8.658;2022-12-18T14:14:50;17.13;;;14.27;;
8636;SDS011;4356;49.068;8.658;2022-12-18T14:17:18;17.33;;;14.57;;
8636;SDS011;4356;49.068;8.658;2022-12-18T14:19:44;18.23;;;14.60;;
8636;SDS011;4356;49.068;8.658;2022-12-18T14:22:23;18.33;;;14.37;;
8636;SDS011;4356;49.068;8.658;2022-12-18T14:27:52;18.37;;;14.07;;
8636;SDS011;4356;49.068;8.658;2022-12-18T14:30:39;16.33;;;13.40;;
8636;SDS011;4356;49.068;8.658;2022-12-18T14:33:11;15.20;;;12.63;;
8636;SDS011;4356;49.068;8.658;2022-12-18T14:35:56;15.43;;;13.57;;
8636;SDS011;4356;49.068;8.658;2022-12-18T14:38:33;17.47;;;13.83;;
8636;SDS011;4356;49.068;8.658;2022-12-18T14:41:06;17.53;;;13.87;;
8636;SDS011;4356;49.068;8.658;2022-12-18T14:43:37;18.37;;;14.70;;
8636;SDS011;4356;49.068;8.658;2022-12-18T14:46:05;17.07;;;14.27;;
8636;SDS011;4356;49.068;8.658;2022-12-18T14:48:51;18.07;;;14.60;;
8636;SDS011;4356;49.068;8.658;2022-12-18T14:51:19;17.87;;;14.33;;
8636;SDS011;4356;49.068;8.658;2022-12-18T14:53:53;17.37;;;15.13;;
8636;SDS011;4356;49.068;8.658;2022-12-18T14:56:22;18.37;;;15.47;;
8636;SDS011;4356;49.068;8.658;2022-12-18T14:58:56;18.20;;;14.23;;
8636;SDS011;4356;49.068;8.658;2022-12-18T15:04:39;17.67;;;14.47;;
8636;SDS011;4356;49.068;8.658;2022-12-18T15:07:17;18.27;;;14.13;;
8636;SDS011;4356;49.068;8.658;2022-12-18T15:12:46;15.87;;;14.10;;
8636;SDS011;4356;49.068;8.658;2022-12-18T15:18:05;17.37;;;14.40;;
8636;SDS011;4356;49.068;8.658;2022-12-18T15:20:43;17.90;;;14.50;;
8636;SDS011;4356;49.068;8.658;2022-12-18T15:23:19;17.70;;;14.37;;
8636;SDS011;4356;49.068;8.658;2022-12-18T15:25:57;21.10;;;15.90;;
8636;SDS011;4356;49.068;8.658;2022-12-18T15:28:26;17.87;;;14.13;;
8636;SDS011;4356;49.068;8.658;2022-12-18T15:33:36;17.60;;;14.90;;
8636;SDS011;4356;49.068;8.658;2022-12-18T15:36:15;16.73;;;13.87;;
8636;SDS011;4356;49.068;8.658;2022-12-18T15:38:41;20.20;;;15.10;;
8636;SDS011;4356;49.068;8.658;2022-12-18T15:41:13;19.00;;;14.73;;
8636;SDS011;4356;49.068;8.658;2022-12-18T15:43:39;18.70;;;14.50;;
8636;SDS011;4356;49.068;8.658;2022-12-18T15:46:11;18.57;;;14.57;;
8636;SDS011;4356;49.068;8.658;2022-12-18T15:48:40;19.07;;;14.27;;
8636;SDS011;4356;49.068;8.658;2022-12-18T15:51:20;17.93;;;14.60;;
8636;SDS011;4356;49.068;8.658;2022-12-18T15:53:52;19.30;;;15.17;;
8636;SDS011;4356;49.068;8.658;2022-12-18T15:56:20;29.83;;;19.87;;
8636;SDS011;4356;49.068;8.658;2022-12-18T15:59:12;24.30;;;19.07;;
8636;SDS011;4356;49.068;8.658;2022-12-18T16:01:39;21.33;;;16.40;;
8636;SDS011;4356;49.068;8.658;2022-12-18T16:04:06;19.50;;;15.63;;
8636;SDS011;4356;49.068;8.658;2022-12-18T16:06:32;22.37;;;17.57;;
8636;SDS011;4356;49.068;8.658;2022-12-18T16:08:57;22.70;;;17.13;;
8636;SDS011;4356;49.068;8.658;2022-12-18T16:11:27;23.70;;;17.17;;
8636;SDS011;4356;49.068;8.658;2022-12-18T16:16:56;21.20;;;16.23;;
8636;SDS011;4356;49.068;8.658;2022-12-18T16:19:23;21.57;;;16.67;;
8636;SDS011;4356;49.068;8.658;2022-12-18T16:21:50;19.67;;;15.60;;
8636;SDS011;4356;49.068;8.658;2022-12-18T16:24:18;20.90;;;15.60;;
8636;SDS011;4356;49.068;8.658;2022-12-18T16:26:49;21.50;;;16.23;;
8636;SDS011;4356;49.068;8.658;2022-12-18T16:29:16;18.73;;;15.23;;
8636;SDS011;4356;49.068;8.658;2022-12-18T16:31:42;19.93;;;15.20;;
8636;SDS011;4356;49.068;8.658;2022-12-18T16:36:54;18.30;;;15.03;;
8636;SDS011;4356;49.068;8.658;2022-12-18T16:39:25;17.87;;;14.33;;
8636;SDS011;4356;49.068;8.658;2022-12-18T16:41:51;19.43;;;15.37;;
8636;SDS011;4356;49.068;8.658;2022-12-18T16:44:17;19.87;;;15.10;;
8636;SDS011;4356;49.068;8.658;2022-12-18T16:46:43;20.90;;;16.30;;
8636;SDS011;4356;49.068;8.658;2022-12-18T16:49:12;19.50;;;15.47;;
8636;SDS011;4356;49.068;8.658;2022-12-18T16:51:40;20.73;;;15.97;;
8636;SDS011;4356;49.068;8.658;2022-12-18T16:54:06;22.37;;;15.43;;
8636;SDS011;4356;49.068;8.658;2022-12-18T16:56:32;25.97;;;17.57;;
8636;SDS011;4356;49.068;8.658;2022-12-18T16:58:58;28.27;;;16.97;;
8636;SDS011;4356;49.068;8.658;2022-12-18T17:01:25;21.83;;;16.13;;
8636;SDS011;4356;49.068;8.658;2022-12-18T17:03:55;31.77;;;20.03;;
8636;SDS011;4356;49.068;8.658;2022-12-18T17:06:25;23.73;;;17.77;;
8636;SDS011;4356;49.068;8.658;2022-12-18T17:09:11;19.23;;;14.87;;
8636;SDS011;4356;49.068;8.658;2022-12-18T17:11:41;18.70;;;15.10;;
8636;SDS011;4356;49.068;8.658;2022-12-18T17:14:08;28.33;;;18.03;;
8636;SDS011;4356;49.068;8.658;2022-12-18T17:16:37;25.87;;;17.20;;
8636;SDS011;4356;49.068;8.658;2022-12-18T17:19:03;25.03;;;18.10;;
8636;SDS011;4356;49.068;8.658;2022-12-18T17:21:29;22.50;;;16.30;;
8636;SDS011;4356;49.068;8.658;2022-12-18T17:23:55;21.67;;;16.17;;
8636;SDS011;4356;49.068;8.658;2022-12-18T17:26:24;20.57;;;15.43;;
8636;SDS011;4356;49.068;8.658;2022-12-18T17:28:50;17.97;;;14.63;;